createdAt,value
2022-08-17T00:05:03.971Z,95898.63
2022-08-17T00:08:57.935Z,95893.09
2022-08-17T00:12:42.907Z,95890.31
2022-08-17T00:16:18.378Z,95883.41
2022-08-17T00:20:12.256Z,95881.02
2022-08-17T00:43:24.279Z,95868.02
2022-08-17T00:47:17.275Z,95862.61
2022-08-17T00:51:10.033Z,95871.30
2022-08-17T00:55:07.549Z,95867.59
2022-08-17T00:58:50.693Z,95868.45
2022-08-17T01:02:43.187Z,95869.14
2022-08-17T01:22:17.586Z,95870.86
2022-08-17T01:26:01.929Z,95876.86
2022-08-17T01:29:56.655Z,95876.42
2022-08-17T01:33:51.219Z,95870.86
2022-08-17T01:37:43.598Z,95874.18
2022-08-17T01:41:29.347Z,95873.27
2022-08-17T01:45:23.102Z,95876.15
2022-08-17T02:12:38.443Z,95860.14
2022-08-17T02:16:36.636Z,95862.81
2022-08-17T02:20:42.140Z,95865.52
2022-08-17T02:24:58.209Z,95870.40
2022-08-17T02:28:46.825Z,95872.95
2022-08-17T03:10:37.192Z,95890.54
2022-08-17T03:14:30.955Z,95892.61
2022-08-17T03:18:24.932Z,95894.63
2022-08-17T03:22:35.548Z,95891.79
2022-08-17T03:42:02.991Z,95908.74
2022-08-17T03:45:47.118Z,95921.02
2022-08-17T03:49:36.429Z,95923.73
2022-08-17T03:53:25.275Z,95930.94
2022-08-17T03:57:19.817Z,95934.71
2022-08-17T04:20:46.317Z,95954.90
2022-08-17T04:24:39.040Z,95960.84
2022-08-17T04:28:31.155Z,95958.02
2022-08-17T04:55:57.485Z,95955.48
2022-08-17T04:59:47.891Z,95956.33
2022-08-17T05:03:38.398Z,95959.25
2022-08-17T05:07:31.610Z,95961.70
2022-08-17T05:26:54.096Z,95962.87
2022-08-17T05:30:49.249Z,95960.59
2022-08-17T05:34:41.074Z,95968.98
2022-08-17T05:38:33.879Z,95972.05
2022-08-17T05:42:26.961Z,95970.02
2022-08-17T06:10:15.033Z,95975.59
2022-08-17T06:14:08.219Z,95973.62
2022-08-17T06:18:03.715Z,95971.19
2022-08-17T06:21:55.979Z,95970.56
2022-08-17T06:25:32.060Z,95967.67
2022-08-17T06:29:31.440Z,95964.55
2022-08-17T06:33:22.823Z,95962.45
2022-08-17T06:37:15.302Z,95963.76
2022-08-17T06:41:06.377Z,95961.83
2022-08-17T06:48:52.710Z,95968.79
2022-08-17T06:52:13.286Z,95971.08
2022-08-17T06:56:08.964Z,95978.71
2022-08-17T06:59:00.693Z,95980.57
2022-08-17T07:03:02.377Z,95981.95
2022-08-17T07:06:32.579Z,95983.11
2022-08-17T07:09:37.489Z,95980.83
2022-08-17T07:12:45.631Z,95984.17
2022-08-17T07:15:56.390Z,95988.87
2022-08-17T07:18:41.069Z,95989.13
2022-08-17T07:21:55.393Z,95988.45
2022-08-17T07:24:50.170Z,95991.09
2022-08-17T07:27:45.678Z,95986.29
2022-08-17T07:31:14.994Z,95986.39
2022-08-17T07:34:19.434Z,95985.35
2022-08-17T07:37:45.179Z,95984.55
2022-08-17T07:40:43.464Z,95982.88
2022-08-17T07:43:21.892Z,95981.16
2022-08-17T07:46:37.051Z,95985.04
2022-08-17T07:49:29.011Z,95977.86
2022-08-17T07:53:22.578Z,95980.02
2022-08-17T07:56:38.584Z,95982.81
2022-08-17T07:59:35.910Z,95978.87
2022-08-17T08:02:40.885Z,95983.04
2022-08-17T08:05:49.990Z,95979.73
2022-08-17T08:08:52.496Z,95976.33
2022-08-17T08:12:02.385Z,95979.95
2022-08-17T08:14:54.999Z,95977.73
2022-08-17T08:17:47.001Z,95977.56
2022-08-17T08:20:52.595Z,95975.55
2022-08-17T08:23:40.009Z,95977.58
2022-08-17T08:26:55.860Z,95974.55
2022-08-17T08:29:48.372Z,95970.85
2022-08-17T08:32:43.757Z,95967.35
2022-08-17T08:35:58.410Z,95967.61
2022-08-17T08:38:44.108Z,95967.55
2022-08-17T08:41:35.526Z,95967.24
2022-08-17T08:45:00.663Z,95966.55
2022-08-17T08:47:27.998Z,95966.67
2022-08-17T08:50:30.151Z,95961.25
2022-08-17T08:54:05.558Z,95962.58
2022-08-17T09:00:15.243Z,95963.02
2022-08-17T09:02:57.212Z,95961.27
2022-08-17T09:06:00.934Z,95958.39
2022-08-17T09:08:58.927Z,95959.02
2022-08-17T09:12:02.339Z,95953.05
2022-08-17T09:14:52.821Z,95959.59
2022-08-17T09:17:28.184Z,95962.28
2022-08-17T09:20:29.321Z,95961.16
2022-08-17T09:23:15.895Z,95969.23
2022-08-17T09:26:00.456Z,95965.73
2022-08-17T09:28:38.167Z,95969.48
2022-08-17T09:31:41.877Z,95968.25
2022-08-17T09:34:35.521Z,95969.71
2022-08-17T09:37:19.990Z,95972.09
2022-08-17T09:40:22.683Z,95974.44
2022-08-17T09:43:22.762Z,95971.64
2022-08-17T09:45:57.752Z,95971.02
2022-08-17T09:48:55.610Z,95968.46
2022-08-17T09:51:49.948Z,95971.70
2022-08-17T09:54:38.995Z,95969.80
2022-08-17T09:57:30.756Z,95967.00
2022-08-17T10:00:57.686Z,95970.95
2022-08-17T10:03:56.847Z,95977.02
2022-08-17T10:06:33.947Z,95969.96
2022-08-17T10:09:25.545Z,95963.19
2022-08-17T10:12:30.179Z,95964.89
2022-08-17T10:15:07.660Z,95961.06
2022-08-17T10:18:08.538Z,95964.48
2022-08-17T10:21:28.032Z,95963.08
2022-08-17T10:25:21.588Z,95966.17
2022-08-17T10:27:57.264Z,95963.50
2022-08-17T10:30:31.559Z,95964.59
2022-08-17T10:33:06.496Z,95961.09
2022-08-17T10:36:00.618Z,95957.35
2022-08-17T10:38:37.594Z,95953.29
2022-08-17T10:41:27.555Z,95954.52
2022-08-17T10:44:36.935Z,95949.80
2022-08-17T10:47:27.356Z,95950.67
2022-08-17T10:49:58.016Z,95948.98
2022-08-17T10:52:31.666Z,95945.43
2022-08-17T10:55:12.591Z,95942.04
2022-08-17T10:57:46.770Z,95942.30
2022-08-17T11:00:28.362Z,95945.77
2022-08-17T11:03:02.616Z,95945.77
2022-08-17T11:05:34.077Z,95946.94
2022-08-17T11:08:21.149Z,95946.78
2022-08-17T11:11:13.311Z,95947.32
2022-08-17T11:13:57.004Z,95948.19
2022-08-17T11:17:05.156Z,95947.30
2022-08-17T11:19:58.041Z,95949.86
2022-08-17T11:23:10.480Z,95956.24
2022-08-17T11:25:51.729Z,95956.38
2022-08-17T11:28:26.293Z,95953.15
2022-08-17T11:31:01.958Z,95944.21
2022-08-17T11:33:36.716Z,95943.30
2022-08-17T11:36:35.242Z,95937.13
2022-08-17T11:39:29.838Z,95936.30
2022-08-17T11:42:17.790Z,95936.46
2022-08-17T11:45:31.794Z,95940.81
2022-08-17T11:48:47.785Z,95937.20
2022-08-17T11:51:55.345Z,95937.92
2022-08-17T11:54:51.746Z,95934.27
2022-08-17T11:57:27.899Z,95934.51
2022-08-17T12:00:13.622Z,95935.71
2022-08-17T12:02:48.544Z,95928.89
2022-08-17T12:05:23.256Z,95929.57
2022-08-17T12:08:20.011Z,95932.45
2022-08-17T12:10:59.893Z,95930.58
2022-08-17T12:13:38.634Z,95929.77
2022-08-17T12:16:17.025Z,95932.31
2022-08-17T12:18:59.313Z,95932.47
2022-08-17T12:22:09.961Z,95935.97
2022-08-17T12:24:52.135Z,95931.59
2022-08-17T12:28:04.424Z,95928.39
2022-08-17T12:30:28.498Z,95928.73
2022-08-17T12:33:31.080Z,95930.42
2022-08-17T12:37:04.031Z,95933.23
2022-08-17T12:40:16.070Z,95925.34
2022-08-17T12:43:30.906Z,95929.27
2022-08-17T12:46:14.958Z,95921.96
2022-08-17T12:48:59.802Z,95919.14
2022-08-17T12:52:08.285Z,95916.59
2022-08-17T12:54:55.867Z,95914.46
2022-08-17T12:58:14.745Z,95915.10
2022-08-17T13:01:08.300Z,95915.13
2022-08-17T13:04:29.641Z,95918.58
2022-08-17T13:08:09.649Z,95920.68
2022-08-17T13:11:19.264Z,95925.04
2022-08-17T13:14:38.536Z,95926.23
2022-08-17T13:17:51.928Z,95929.33
2022-08-17T13:20:57.184Z,95921.70
2022-08-17T13:24:51.923Z,95917.95
2022-08-17T13:28:13.823Z,95920.77
2022-08-17T13:32:05.091Z,95920.80
2022-08-17T13:36:27.132Z,95918.73
2022-08-17T13:40:01.434Z,95929.02
2022-08-17T13:43:43.766Z,95929.70
2022-08-17T13:46:28.085Z,95932.36
2022-08-17T13:49:06.003Z,95931.91
2022-08-17T13:51:44.434Z,95930.29
2022-08-17T13:54:37.435Z,95929.46
2022-08-17T13:57:50.250Z,95930.00
2022-08-17T14:00:59.083Z,95935.50
2022-08-17T14:03:44.355Z,95935.55
2022-08-17T14:06:49.241Z,95928.58
2022-08-17T14:09:24.841Z,95934.73
2022-08-17T14:11:57.347Z,95923.72
2022-08-17T14:14:29.573Z,95923.86
2022-08-17T14:16:59.597Z,95923.27
2022-08-17T14:19:29.477Z,95925.16
2022-08-17T14:22:00.864Z,95922.44
2022-08-17T14:24:44.992Z,95918.77
2022-08-17T14:27:18.568Z,95916.81
2022-08-17T14:29:49.376Z,95916.75
2022-08-17T14:32:27.810Z,95918.67
2022-08-17T14:35:02.573Z,95919.82
2022-08-17T14:37:34.856Z,95923.73
2022-08-17T14:40:10.008Z,95926.95
2022-08-17T14:42:46.090Z,95924.47
2022-08-17T14:45:32.395Z,95930.55
2022-08-17T14:48:08.015Z,95928.84
2022-08-17T14:50:44.467Z,95939.66
2022-08-17T14:53:20.788Z,95940.33
2022-08-17T14:55:56.930Z,95941.33
2022-08-17T14:58:26.737Z,95940.50
2022-08-17T15:00:58.044Z,95943.75
2022-08-17T15:03:31.368Z,95947.68
2022-08-17T15:06:16.356Z,95939.91
2022-08-17T15:08:46.622Z,95936.85
2022-08-17T15:11:17.479Z,95932.08
2022-08-17T15:13:52.327Z,95927.02
2022-08-17T15:16:24.146Z,95929.85
2022-08-17T15:18:54.649Z,95923.67
2022-08-17T15:21:25.630Z,95913.10
2022-08-17T15:23:55.358Z,95908.91
2022-08-17T15:26:26.488Z,95910.02
2022-08-17T15:28:56.583Z,95925.86
2022-08-17T15:31:32.382Z,95936.29
2022-08-17T15:34:02.303Z,95943.20
2022-08-17T15:36:37.441Z,95950.95
2022-08-17T15:39:19.234Z,95958.17
2022-08-17T15:41:58.056Z,95969.84
2022-08-17T15:44:40.926Z,96009.92
2022-08-17T15:47:10.362Z,96023.23
2022-08-17T15:49:49.153Z,96027.79
2022-08-17T15:52:51.297Z,96020.11
2022-08-17T15:55:47.537Z,96022.56
2022-08-17T15:58:33.360Z,96036.86
2022-08-17T16:03:14.863Z,96034.74
2022-08-17T16:04:52.438Z,96026.06
2022-08-17T16:07:26.780Z,96030.20
2022-08-17T16:09:57.538Z,96039.41
2022-08-17T16:12:32.644Z,96040.89
2022-08-17T16:15:18.041Z,96044.59
2022-08-17T16:18:39.412Z,96046.77
2022-08-17T16:22:09.493Z,96043.35
2022-08-17T16:25:38.362Z,96044.36
2022-08-17T16:29:22.244Z,96041.14
2022-08-17T16:33:06.747Z,96040.75
2022-08-17T16:40:04.252Z,96045.69
2022-08-17T16:42:49.802Z,96048.98
2022-08-17T16:46:15.583Z,96046.90
2022-08-17T16:49:37.291Z,96047.08
2022-08-17T16:53:13.656Z,96048.74
2022-08-17T16:56:39.342Z,96055.93
2022-08-17T16:59:53.782Z,96058.74
2022-08-17T17:03:18.983Z,96063.73
2022-08-17T17:06:35.895Z,96064.48
2022-08-17T17:30:09.290Z,96061.73
2022-08-17T17:33:25.726Z,96055.84
2022-08-17T17:36:29.673Z,96059.73
2022-08-17T17:39:53.891Z,96067.38
2022-08-17T17:42:56.190Z,96067.59
2022-08-17T17:45:52.540Z,96066.52
2022-08-17T17:48:42.417Z,96065.68
2022-08-17T17:52:08.810Z,96068.33
2022-08-17T17:55:31.577Z,96069.48
2022-08-17T17:58:30.426Z,96072.50
2022-08-17T18:01:24.085Z,96072.58
2022-08-17T18:05:11.192Z,96073.55
2022-08-17T18:08:03.733Z,96073.67
2022-08-17T18:11:11.747Z,96077.58
2022-08-17T18:14:40.012Z,96085.63
2022-08-17T18:17:31.021Z,96090.65
2022-08-17T18:20:55.859Z,96085.24
2022-08-17T18:24:04.652Z,96085.02
2022-08-17T18:27:29.313Z,96088.77
2022-08-17T18:30:53.841Z,96092.25
2022-08-17T18:34:45.537Z,96094.04
2022-08-17T18:37:39.734Z,96098.95
2022-08-17T18:41:11.791Z,96097.70
2022-08-17T18:44:58.790Z,96095.90
2022-08-17T18:48:17.325Z,96098.98
2022-08-17T18:51:40.641Z,96099.95
2022-08-17T18:55:11.779Z,96102.39
2022-08-17T18:58:22.807Z,96101.48
2022-08-17T19:01:54.681Z,96099.73
2022-08-17T19:05:39.521Z,96106.48
2022-08-17T19:08:54.960Z,96106.04
2022-08-17T19:11:57.055Z,96117.68
2022-08-17T19:15:35.577Z,96115.04
2022-08-17T19:18:48.113Z,96111.54
2022-08-17T19:22:21.411Z,96110.77
2022-08-17T19:26:04.668Z,96109.05
2022-08-17T19:29:14.526Z,96107.54
2022-08-17T19:33:09.295Z,96111.83
2022-08-17T19:36:53.944Z,96105.84
2022-08-17T19:40:53.512Z,96104.86
2022-08-17T19:44:46.816Z,96103.08
2022-08-17T19:48:46.389Z,96100.55
2022-08-17T19:52:18.700Z,96103.77
2022-08-17T19:56:01.659Z,96108.89
2022-08-17T19:59:52.875Z,96106.30
2022-08-17T20:03:29.148Z,96112.38
2022-08-17T20:07:13.819Z,96108.19
2022-08-17T20:11:00.587Z,96110.16
2022-08-17T20:14:56.093Z,96114.23
2022-08-17T20:26:19.629Z,96112.33
2022-08-17T20:30:13.845Z,96110.25
2022-08-17T20:34:05.791Z,96114.23
2022-08-17T20:38:04.330Z,96119.94
2022-08-17T20:41:43.054Z,96123.23
2022-08-17T20:45:35.710Z,96128.16
2022-08-17T20:49:31.158Z,96131.98
2022-08-17T20:53:39.823Z,96134.16
2022-08-17T20:57:48.064Z,96131.27
2022-08-17T21:01:26.037Z,96129.83
2022-08-17T21:05:30.310Z,96123.25
2022-08-17T21:09:16.422Z,96124.09
2022-08-17T21:13:24.455Z,96117.75
2022-08-17T21:17:29.438Z,96115.93
2022-08-17T21:21:16.900Z,96114.02
2022-08-17T21:25:01.684Z,96103.46
2022-08-17T21:29:00.338Z,96101.16
2022-08-17T21:33:02.460Z,96102.45
2022-08-17T21:36:53.003Z,96104.27
2022-08-17T21:40:39.597Z,96105.52
2022-08-17T21:44:12.391Z,96110.39
2022-08-17T21:48:17.070Z,96115.08
2022-08-17T21:52:27.890Z,96115.18
2022-08-17T21:56:13.514Z,96121.64
2022-08-17T21:59:50.701Z,96118.03
2022-08-17T22:26:19.732Z,96110.08
2022-08-17T22:30:24.559Z,96112.20
2022-08-17T22:34:07.592Z,96109.73
2022-08-17T22:38:20.095Z,96110.54
2022-08-17T22:42:30.641Z,96112.25
2022-08-17T22:46:23.135Z,96111.85
2022-08-17T22:50:39.414Z,96113.47
2022-08-17T22:54:29.537Z,96112.16
2022-08-17T22:58:20.071Z,96113.72
2022-08-17T23:02:24.843Z,96114.98
2022-08-17T23:06:19.512Z,96112.01
2022-08-17T23:10:12.493Z,96114.86
2022-08-17T23:29:35.837Z,96106.05
2022-08-17T23:33:27.804Z,96113.48
2022-08-17T23:37:19.889Z,96114.91
2022-08-17T23:41:14.138Z,96118.52
2022-08-17T23:45:06.127Z,96112.25
2022-08-17T23:52:46.092Z,96107.08
2022-08-17T23:56:19.406Z,96107.23
